Time;durP1;ratioP1;P1;durP2;ratioP2;P2;SDS_P1;SDS_P2;PMS_P1;PMS_P2;Temp;Humidity;BMP_temperature;BMP_pressure;BME280_temperature;BME280_humidity;BME280_pressure;Samples;Min_cycle;Max_cycle;Signal;HPM_P1;HPM_P2
2021/10/01 00:01:41;;;;;;;1.43;0.70;;;;;;;10.81;65.61;101472.00;5093796;28;20201;-81
2021/10/01 00:04:10;;;;;;;3.17;1.10;;;;;;;10.79;65.99;101473.88;5093093;28;20216;-82
2021/10/01 00:06:36;;;;;;;2.50;1.10;;;;;;;10.76;66.11;101474.88;5093305;28;20216;-80
2021/10/01 00:09:03;;;;;;;2.93;1.23;;;;;;;10.75;66.02;101461.63;5092654;28;20228;-81
2021/10/01 00:11:29;;;;;;;1.70;0.90;;;;;;;10.74;66.33;101468.81;5092526;28;20213;-81
2021/10/01 00:13:56;;;;;;;2.10;1.23;;;;;;;10.74;66.31;101465.28;5095243;28;20214;-81
2021/10/01 00:16:22;;;;;;;2.40;1.00;;;;;;;10.72;66.28;101462.69;5096896;28;20208;-81
2021/10/01 00:18:49;;;;;;;2.90;1.10;;;;;;;10.70;66.46;101466.38;5092260;28;20228;-82
2021/10/01 00:21:17;;;;;;;2.00;1.10;;;;;;;10.65;66.58;101453.28;5091979;28;20208;-81
2021/10/01 00:23:43;;;;;;;1.57;0.90;;;;;;;10.63;66.69;101454.28;5091970;28;20208;-81
2021/10/01 00:26:10;;;;;;;3.53;1.20;;;;;;;10.61;66.56;101442.84;5093512;28;20208;-81
2021/10/01 00:28:36;;;;;;;3.43;1.10;;;;;;;10.58;67.03;101438.53;5096717;28;20600;-81
2021/10/01 00:31:03;;;;;;;2.97;1.00;;;;;;;10.54;66.94;101438.78;5109445;28;20315;-82
2021/10/01 00:33:29;;;;;;;3.30;1.17;;;;;;;10.49;67.37;101440.81;5095450;28;20573;-81
2021/10/01 00:35:59;;;;;;;2.07;1.00;;;;;;;10.46;67.10;101432.97;5095862;28;20204;-82
2021/10/01 00:38:28;;;;;;;2.13;0.90;;;;;;;10.41;67.36;101427.88;5100781;28;20220;-80
2021/10/01 00:40:54;;;;;;;3.80;0.90;;;;;;;10.37;67.45;101424.53;5085458;28;20206;-81
2021/10/01 00:43:21;;;;;;;1.07;0.80;;;;;;;10.35;67.83;101418.41;5110250;28;20215;-81
2021/10/01 00:45:47;;;;;;;2.60;1.10;;;;;;;10.35;67.91;101422.88;5096853;28;20201;-81
2021/10/01 00:48:14;;;;;;;4.53;1.13;;;;;;;10.35;67.75;101418.41;5096795;28;20232;-82
2021/10/01 00:50:41;;;;;;;1.30;0.80;;;;;;;10.35;67.88;101414.88;5095088;28;20708;-81
2021/10/01 00:53:08;;;;;;;3.77;0.93;;;;;;;10.37;67.95;101418.31;5095343;28;20205;-82
2021/10/01 00:55:36;;;;;;;4.20;1.47;;;;;;;10.37;67.77;101419.19;5104038;28;20222;-82
2021/10/01 00:58:02;;;;;;;5.80;1.10;;;;;;;10.37;67.90;101421.00;5102431;28;20586;-81
2021/10/01 01:00:29;;;;;;;4.13;1.47;;;;;;;10.37;68.03;101421.84;5093828;28;20776;-83
2021/10/01 01:02:58;;;;;;;2.37;1.37;;;;;;;10.37;67.92;101416.53;5095759;28;20201;-83
2021/10/01 01:05:34;;;;;;;2.40;1.10;;;;;;;10.37;67.72;101421.84;5100552;28;20236;-82
2021/10/01 01:08:07;;;;;;;2.33;0.97;;;;;;;10.36;67.87;101420.13;5094125;28;20728;-81
2021/10/01 01:10:42;;;;;;;1.57;1.10;;;;;;;10.36;68.04;101422.78;5094295;28;20216;-81
2021/10/01 01:13:15;;;;;;;4.27;1.13;;;;;;;10.35;67.71;101420.19;5094975;28;20302;-82
2021/10/01 01:15:49;;;;;;;2.27;0.97;;;;;;;10.33;68.00;101412.28;5101600;28;20208;-83
2021/10/01 01:18:20;;;;;;;3.97;0.97;;;;;;;10.33;68.23;101416.75;5094675;28;20599;-82
2021/10/01 01:20:50;;;;;;;3.67;1.20;;;;;;;10.33;68.06;101411.44;5104655;28;20192;-82
2021/10/01 01:23:31;;;;;;;2.80;1.20;;;;;;;10.32;68.11;101413.22;5095761;28;20206;-82
2021/10/01 01:26:08;;;;;;;2.60;1.20;;;;;;;10.32;68.25;101404.38;5095120;28;20200;-82
2021/10/01 01:29:08;;;;;;;4.93;1.00;;;;;;;10.30;68.06;101399.13;5101632;28;20230;-81
2021/10/01 01:31:46;;;;;;;4.70;0.93;;;;;;;10.32;68.24;101393.72;5092747;28;20445;-83
2021/10/01 01:34:19;;;;;;;2.57;1.00;;;;;;;10.29;68.60;101389.41;5095141;28;20215;-83
2021/10/01 01:36:51;;;;;;;2.03;0.97;;;;;;;10.30;68.42;101392.94;5094813;28;20197;-82
2021/10/01 01:39:17;;;;;;;2.33;1.00;;;;;;;10.29;68.50;101389.41;5095038;28;20206;-82
2021/10/01 01:41:45;;;;;;;2.67;1.20;;;;;;;10.30;68.74;101385.81;5094277;28;20219;-82
2021/10/01 01:44:13;;;;;;;1.90;0.80;;;;;;;10.31;68.44;101382.22;5095080;28;20820;-81
2021/10/01 01:46:41;;;;;;;7.30;1.37;;;;;;;10.30;68.92;101374.31;5105721;28;20215;-82
2021/10/01 01:49:08;;;;;;;1.73;0.80;;;;;;;10.31;68.80;101371.56;5095117;28;20230;-81
2021/10/01 01:51:37;;;;;;;1.40;1.10;;;;;;;10.31;68.93;101363.56;5094770;28;20658;-80
2021/10/01 01:54:05;;;;;;;2.60;1.00;;;;;;;10.29;68.41;101362.78;5098783;28;20212;-80
2021/10/01 01:56:33;;;;;;;1.87;0.90;;;;;;;10.28;68.71;101369.06;5103976;28;20576;-80
2021/10/01 01:59:01;;;;;;;2.37;0.83;;;;;;;10.27;68.93;101367.31;5095338;28;20721;-80
2021/10/01 02:01:30;;;;;;;2.87;1.20;;;;;;;10.26;68.84;101357.63;5096600;28;20226;-81
2021/10/01 02:03:58;;;;;;;3.67;0.97;;;;;;;10.25;68.94;101347.03;5096432;28;20659;-81
2021/10/01 02:06:25;;;;;;;1.73;1.10;;;;;;;10.23;69.04;101347.13;5096590;28;20204;-81
2021/10/01 02:08:54;;;;;;;2.50;1.00;;;;;;;10.21;69.17;101346.31;5095492;28;20234;-80
2021/10/01 02:11:21;;;;;;;2.73;0.93;;;;;;;10.19;69.01;101332.25;5094402;28;20681;-80
2021/10/01 02:13:50;;;;;;;2.63;0.97;;;;;;;10.18;68.84;101333.16;5093786;28;20799;-80
2021/10/01 02:16:18;;;;;;;2.73;1.00;;;;;;;10.17;68.98;101330.59;5106000;28;20208;-81
2021/10/01 02:18:48;;;;;;;4.80;0.93;;;;;;;10.14;69.29;101323.59;5093650;28;20235;-82
2021/10/01 02:21:16;;;;;;;3.43;1.23;;;;;;;10.13;69.03;101321.88;5094111;28;20211;-82
2021/10/01 02:23:43;;;;;;;3.23;1.00;;;;;;;10.10;69.44;101317.56;5114778;28;20725;-83
2021/10/01 02:26:37;;;;;;;3.63;1.13;;;;;;;10.09;69.63;101315.84;5094787;28;20212;-82
2021/10/01 02:29:14;;;;;;;2.13;1.03;;;;;;;10.10;69.50;101322.03;5095517;28;20257;-80
2021/10/01 02:31:52;;;;;;;2.87;0.90;;;;;;;10.09;69.62;101312.31;5102070;28;20219;-82
2021/10/01 02:34:27;;;;;;;3.53;0.97;;;;;;;10.09;69.65;101310.53;5100263;28;20208;-82
2021/10/01 02:36:53;;;;;;;2.77;1.10;;;;;;;10.09;69.50;101307.00;5093559;28;20237;-80
2021/10/01 02:39:20;;;;;;;4.67;1.00;;;;;;;10.09;69.68;101307.88;5099408;28;20200;-80
2021/10/01 02:41:48;;;;;;;2.40;1.23;;;;;;;10.10;70.03;101308.72;5106198;28;20664;-82
2021/10/01 02:44:14;;;;;;;1.00;0.90;;;;;;;10.09;69.74;101301.69;5097180;28;20204;-81
2021/10/01 02:46:41;;;;;;;3.40;0.90;;;;;;;10.10;69.90;101308.72;5100974;28;20232;-82
2021/10/01 02:49:07;;;;;;;3.60;1.10;;;;;;;10.09;70.12;101301.69;5098183;28;20204;-82
2021/10/01 02:51:41;;;;;;;2.43;1.03;;;;;;;10.10;70.04;101303.41;5095774;28;20231;-81
2021/10/01 02:54:11;;;;;;;2.27;1.00;;;;;;;10.09;69.96;101296.34;5089399;28;20204;-81
2021/10/01 02:56:41;;;;;;;3.13;1.03;;;;;;;10.09;69.91;101291.91;5093236;28;20208;-81
2021/10/01 02:59:12;;;;;;;4.67;1.00;;;;;;;10.10;70.10;101295.41;5093841;28;20602;-80
2021/10/01 03:01:43;;;;;;;2.97;1.20;;;;;;;10.08;69.87;101295.50;5096366;28;20545;-81
2021/10/01 03:04:11;;;;;;;3.10;1.00;;;;;;;10.06;69.65;101277.88;5098509;28;20592;-80
2021/10/01 03:06:42;;;;;;;2.50;0.90;;;;;;;10.05;69.67;101284.13;5101655;28;20612;-82
2021/10/01 03:09:10;;;;;;;2.07;0.97;;;;;;;10.03;69.30;101280.72;5096823;28;20566;-81
2021/10/01 03:11:39;;;;;;;3.57;1.00;;;;;;;10.00;69.99;101280.88;5102050;28;20207;-80
2021/10/01 03:14:07;;;;;;;2.67;1.00;;;;;;;9.98;69.83;101288.06;5092672;28;20689;-82
2021/10/01 03:16:36;;;;;;;2.47;1.10;;;;;;;9.96;69.71;101279.31;5098356;28;20207;-81
2021/10/01 03:19:04;;;;;;;3.73;0.90;;;;;;;9.95;70.23;101274.91;5104250;28;20212;-82
2021/10/01 03:21:33;;;;;;;2.50;0.80;;;;;;;9.94;69.94;101278.50;5099034;28;20207;-80
2021/10/01 03:24:00;;;;;;;3.27;1.27;;;;;;;9.93;70.19;101271.47;5097957;28;20214;-81
2021/10/01 03:26:27;;;;;;;2.70;1.10;;;;;;;9.92;69.67;101275.06;5097983;28;20769;-82
2021/10/01 03:28:54;;;;;;;1.87;1.03;;;;;;;9.91;69.73;101271.53;5094875;28;20233;-81
2021/10/01 03:31:24;;;;;;;2.93;1.03;;;;;;;9.90;69.78;101274.28;5099769;28;20228;-82
2021/10/01 03:33:52;;;;;;;1.87;0.93;;;;;;;9.89;69.97;101277.88;5093263;28;20208;-82
2021/10/01 03:36:18;;;;;;;3.40;0.83;;;;;;;9.88;70.00;101276.16;5095878;28;20263;-82
2021/10/01 03:38:46;;;;;;;3.07;1.00;;;;;;;9.85;69.93;101273.66;5094950;28;20294;-82
2021/10/01 03:41:15;;;;;;;5.57;1.50;;;;;;;9.83;70.26;101279.06;5088515;28;20643;-82
2021/10/01 03:43:41;;;;;;;2.77;1.03;;;;;;;9.81;70.53;101275.63;5091669;28;20203;-82
2021/10/01 03:46:08;;;;;;;3.43;1.47;;;;;;;9.80;70.71;101286.34;5095828;28;20200;-82
2021/10/01 03:48:34;;;;;;;2.57;1.20;;;;;;;9.79;70.42;101276.63;5094655;28;20593;-81
2021/10/01 03:51:02;;;;;;;3.83;1.00;;;;;;;9.79;70.15;101273.97;5095372;28;20595;-80
2021/10/01 03:53:29;;;;;;;2.90;1.03;;;;;;;9.77;69.93;101270.53;5095254;28;20208;-81
2021/10/01 03:55:55;;;;;;;1.03;0.77;;;;;;;9.77;70.12;101262.53;5094626;28;20646;-81
2021/10/01 03:58:22;;;;;;;4.40;1.20;;;;;;;9.77;69.91;101267.84;5095947;28;20232;-81
2021/10/01 04:00:49;;;;;;;1.83;0.70;;;;;;;9.75;70.19;101257.28;5096467;28;20666;-82
2021/10/01 04:03:15;;;;;;;2.70;1.23;;;;;;;9.75;69.84;101258.16;5108509;28;20210;-82
2021/10/01 04:05:42;;;;;;;1.77;0.93;;;;;;;9.78;70.22;101253.63;5096390;28;20208;-82
2021/10/01 04:08:12;;;;;;;3.33;0.80;;;;;;;9.79;70.28;101250.03;5094664;28;20215;-83
2021/10/01 04:10:39;;;;;;;3.27;0.93;;;;;;;9.79;69.81;101240.25;5102216;28;20219;-82
2021/10/01 04:13:07;;;;;;;4.13;1.00;;;;;;;9.79;70.10;101256.22;5096628;28;20196;-81
2021/10/01 04:15:34;;;;;;;2.23;0.80;;;;;;;9.78;69.93;101248.31;5095678;28;20240;-82
2021/10/01 04:18:01;;;;;;;3.23;1.03;;;;;;;9.78;70.28;101237.66;5098193;28;20734;-81
2021/10/01 04:20:28;;;;;;;2.20;0.80;;;;;;;9.79;70.07;101239.38;5099948;28;20258;-82
2021/10/01 04:22:54;;;;;;;3.10;0.83;;;;;;;9.81;70.05;101232.19;5095344;28;20204;-83
2021/10/01 04:25:22;;;;;;;2.07;0.77;;;;;;;9.87;70.05;101226.53;5101750;28;20216;-82
2021/10/01 04:27:49;;;;;;;3.23;1.00;;;;;;;9.91;69.45;101234.28;5095967;28;20229;-83
2021/10/01 04:30:15;;;;;;;1.20;0.93;;;;;;;9.94;69.73;101233.28;5093561;28;20240;-83
2021/10/01 04:32:46;;;;;;;3.70;0.90;;;;;;;9.98;69.28;101234.84;5096289;28;20201;-82
2021/10/01 04:35:13;;;;;;;2.67;0.90;;;;;;;10.02;68.77;101242.59;5095418;28;20200;-82
2021/10/01 04:37:39;;;;;;;3.13;1.07;;;;;;;10.04;69.03;101235.38;5089001;28;20223;-81
2021/10/01 04:40:08;;;;;;;3.23;0.80;;;;;;;10.07;68.97;101229.03;5088175;28;20209;-83
2021/10/01 04:42:36;;;;;;;3.20;1.13;;;;;;;10.08;68.91;101239.59;5085233;28;20219;-85
2021/10/01 04:45:03;;;;;;;2.60;0.80;;;;;;;10.12;68.99;101234.13;5087457;28;20209;-83
2021/10/01 04:47:29;;;;;;;3.23;1.00;;;;;;;10.11;68.24;101233.25;5086336;28;20228;-82
2021/10/01 04:49:56;;;;;;;2.60;0.87;;;;;;;10.13;67.95;101239.38;5085218;28;20201;-82
2021/10/01 04:52:23;;;;;;;2.13;0.97;;;;;;;10.13;68.13;101231.38;5088632;28;20215;-83
2021/10/01 04:54:49;;;;;;;2.10;0.80;;;;;;;10.16;68.10;101227.72;5086522;28;20215;-83
2021/10/01 04:57:16;;;;;;;2.47;1.20;;;;;;;10.16;68.13;101230.38;5084625;28;20231;-85
2021/10/01 04:59:43;;;;;;;3.77;0.90;;;;;;;10.15;67.82;101226.84;5086168;28;20204;-83
2021/10/01 05:02:10;;;;;;;3.77;1.00;;;;;;;10.14;67.99;101227.78;5084910;28;20211;-84
2021/10/01 05:04:37;;;;;;;1.90;1.10;;;;;;;10.14;67.72;101230.44;5080614;28;20203;-84
2021/10/01 05:07:04;;;;;;;1.63;0.90;;;;;;;10.14;67.86;101230.44;5084092;28;20220;-84
2021/10/01 05:09:30;;;;;;;2.67;0.90;;;;;;;10.14;67.95;101224.25;5086569;28;20213;-83
2021/10/01 05:11:57;;;;;;;2.93;0.90;;;;;;;10.15;67.75;101220.66;5083238;28;20220;-83
2021/10/01 05:14:23;;;;;;;2.00;1.20;;;;;;;10.16;67.96;101220.59;5084790;28;20204;-83
2021/10/01 05:16:51;;;;;;;2.57;0.93;;;;;;;10.17;67.40;101224.97;5084002;28;20571;-84
2021/10/01 05:19:18;;;;;;;1.80;0.73;;;;;;;10.20;67.77;101224.84;5087759;28;20306;-83
2021/10/01 05:21:44;;;;;;;2.53;0.80;;;;;;;10.25;67.20;101227.25;5088479;28;20197;-83
2021/10/01 05:24:14;;;;;;;2.80;0.90;;;;;;;10.24;67.53;101221.06;5082826;28;20232;-82
2021/10/01 05:26:41;;;;;;;3.60;1.20;;;;;;;10.23;67.52;101229.97;5083218;28;20286;-83
2021/10/01 05:29:08;;;;;;;3.43;0.70;;;;;;;10.23;67.30;101216.69;5088825;28;20643;-83
2021/10/01 05:31:34;;;;;;;1.70;0.90;;;;;;;10.24;67.21;101229.03;5093867;28;20752;-83
2021/10/01 05:34:02;;;;;;;2.93;0.87;;;;;;;10.23;67.39;101229.97;5092931;28;20204;-83
2021/10/01 05:36:28;;;;;;;1.93;0.83;;;;;;;10.24;67.40;101228.19;5093512;28;20200;-82
2021/10/01 05:38:55;;;;;;;2.07;0.63;;;;;;;10.24;66.92;101230.84;5082436;28;20232;-83
2021/10/01 05:41:21;;;;;;;2.70;0.93;;;;;;;10.24;67.35;101230.84;5094827;28;20204;-84
2021/10/01 05:43:48;;;;;;;2.97;0.60;;;;;;;10.26;67.12;101228.97;5100720;28;20568;-83
2021/10/01 05:46:16;;;;;;;2.23;0.80;;;;;;;10.25;67.45;101225.44;5088709;28;20570;-84
2021/10/01 05:48:46;;;;;;;4.80;0.80;;;;;;;10.25;67.17;101225.44;5092587;28;20762;-83
2021/10/01 05:51:14;;;;;;;3.53;0.60;;;;;;;10.26;66.92;101223.63;5088705;28;20595;-83
2021/10/01 05:54:01;;;;;;;1.70;0.90;;;;;;;10.27;67.08;101230.69;5088847;28;20204;-85
2021/10/01 05:56:28;;;;;;;2.40;0.70;;;;;;;10.27;67.31;101226.22;5084349;28;20208;-83
2021/10/01 05:58:54;;;;;;;1.70;0.70;;;;;;;10.31;67.09;101226.94;5093529;28;20228;-82
2021/10/01 06:01:21;;;;;;;2.33;0.80;;;;;;;10.32;67.21;101218.88;5092876;28;20235;-82
2021/10/01 06:03:49;;;;;;;2.77;1.10;;;;;;;10.31;67.18;101222.47;5092881;28;20215;-81
2021/10/01 06:06:16;;;;;;;3.03;0.93;;;;;;;10.33;67.10;101225.91;5092419;28;20666;-83
2021/10/01 06:08:43;;;;;;;4.47;0.90;;;;;;;10.35;67.13;101228.50;5087427;28;20220;-84
2021/10/01 06:11:10;;;;;;;3.83;0.90;;;;;;;10.34;67.05;101219.66;5092416;28;20231;-83
2021/10/01 06:13:37;;;;;;;3.10;0.70;;;;;;;10.35;67.17;101215.19;5092417;28;20204;-82
2021/10/01 06:16:05;;;;;;;3.57;0.73;;;;;;;10.37;66.89;101229.28;5100993;28;20204;-83
2021/10/01 06:18:32;;;;;;;2.90;1.00;;;;;;;10.40;67.01;101223.75;5100014;28;20239;-82
2021/10/01 06:20:58;;;;;;;4.17;0.63;;;;;;;10.43;67.19;101226.25;5092751;28;20207;-82
2021/10/01 06:23:27;;;;;;;1.63;0.70;;;;;;;10.45;67.02;101229.72;5093365;28;20211;-83
2021/10/01 06:25:54;;;;;;;1.97;0.90;;;;;;;10.49;67.15;101230.41;5091900;28;20564;-81
2021/10/01 06:28:20;;;;;;;2.83;0.80;;;;;;;10.51;67.10;101231.19;5089770;28;20247;-82
2021/10/01 06:30:47;;;;;;;2.73;0.93;;;;;;;10.52;67.04;101231.13;5092393;28;20235;-83
2021/10/01 06:33:13;;;;;;;1.70;0.90;;;;;;;10.56;66.90;101231.81;5091666;28;20208;-83
2021/10/01 06:35:40;;;;;;;3.13;1.10;;;;;;;10.58;67.04;101224.56;5092315;28;20295;-82
2021/10/01 06:38:06;;;;;;;4.77;1.10;;;;;;;10.59;67.12;101215.66;5091607;28;20239;-82
2021/10/01 06:40:34;;;;;;;3.37;1.10;;;;;;;10.62;67.03;101219.00;5091942;28;20204;-82
2021/10/01 06:43:05;;;;;;;3.10;1.00;;;;;;;10.66;67.02;101222.38;5091486;28;20208;-82
2021/10/01 06:45:33;;;;;;;1.40;0.77;;;;;;;10.67;66.93;101224.94;5092055;28;20207;-82
2021/10/01 06:48:12;;;;;;;2.57;0.70;;;;;;;10.72;67.00;101222.03;5091953;28;20232;-82
2021/10/01 07:21:20;;;;;;;2.93;0.90;;;;;;;11.35;66.39;101211.38;5077893;28;20203;-81
2021/10/01 08:19:06;;;;;;;4.70;1.17;;;;;;;12.83;60.92;101190.72;5014255;28;20686;-84
2021/10/01 08:21:33;;;;;;;2.83;1.00;;;;;;;12.88;60.04;101185.09;5082413;28;20207;-84
2021/10/01 08:23:59;;;;;;;1.27;0.40;;;;;;;12.90;60.17;101183.16;5082505;28;20585;-84
2021/10/01 08:26:30;;;;;;;1.53;0.67;;;;;;;12.94;60.45;101178.47;5082802;28;20215;-84
2021/10/01 08:28:57;;;;;;;2.17;1.20;;;;;;;12.97;60.19;101186.28;5083499;28;20217;-82
2021/10/01 08:31:27;;;;;;;2.53;0.80;;;;;;;13.01;59.94;101179.81;5088896;28;20236;-82
2021/10/01 08:33:55;;;;;;;1.93;0.50;;;;;;;13.06;59.98;101186.56;5084746;28;20200;-81
2021/10/01 08:36:22;;;;;;;1.73;0.57;;;;;;;13.11;59.96;101178.22;5085681;28;20223;-82
2021/10/01 08:38:49;;;;;;;2.73;0.60;;;;;;;13.16;59.48;101181.50;5080421;28;20287;-83
2021/10/01 08:41:15;;;;;;;3.27;0.93;;;;;;;13.22;59.24;101175.75;5081749;28;20200;-81
2021/10/01 08:43:43;;;;;;;2.77;0.70;;;;;;;13.29;59.19;101179.72;5079867;28;20212;-83
2021/10/01 08:46:10;;;;;;;2.60;0.67;;;;;;;13.34;58.93;101174.94;5082572;28;20211;-82
2021/10/01 08:48:37;;;;;;;2.17;0.83;;;;;;;13.41;58.73;101172.72;5083520;28;20738;-82
2021/10/01 08:51:08;;;;;;;2.33;0.70;;;;;;;13.48;58.18;101165.97;5081318;28;20224;-82
2021/10/01 08:53:35;;;;;;;5.53;0.80;;;;;;;13.54;58.05;101155.72;5082629;28;20205;-81
2021/10/01 08:56:03;;;;;;;1.07;0.73;;;;;;;13.63;57.93;101159.59;5078745;28;20212;-82
2021/10/01 08:58:29;;;;;;;4.63;0.87;;;;;;;13.73;57.77;101159.84;5083685;28;20223;-81
2021/10/01 09:00:58;;;;;;;1.27;0.70;;;;;;;13.81;57.47;101152.97;5083407;28;20214;-82
2021/10/01 09:03:24;;;;;;;2.93;0.80;;;;;;;13.89;57.04;101150.63;5085352;28;20207;-82
2021/10/01 09:05:51;;;;;;;1.80;0.50;;;;;;;13.98;56.58;101149.13;5080834;28;20205;-82
2021/10/01 09:08:23;;;;;;;1.67;0.70;;;;;;;14.05;56.44;101144.22;5087033;28;20221;-82
2021/10/01 09:11:02;;;;;;;0.93;0.50;;;;;;;14.13;56.40;101136.50;5084586;28;20208;-82
2021/10/01 09:13:28;;;;;;;3.47;0.67;;;;;;;14.19;56.13;101146.78;5078266;28;20232;-81
2021/10/01 09:16:01;;;;;;;2.97;0.60;;;;;;;14.26;55.74;101137.34;5082325;28;20211;-82
2021/10/01 09:18:28;;;;;;;3.20;0.97;;;;;;;14.32;55.91;101128.88;5074723;28;20604;-81
2021/10/01 09:21:08;;;;;;;2.20;0.70;;;;;;;14.41;55.60;101136.28;5081178;28;20205;-81
2021/10/01 09:23:42;;;;;;;1.90;0.60;;;;;;;14.50;55.92;101127.59;5082444;28;20203;-81
2021/10/01 09:26:11;;;;;;;2.87;0.57;;;;;;;14.57;55.71;101128.84;5088646;28;20801;-84
2021/10/01 09:28:51;;;;;;;1.93;0.67;;;;;;;14.69;55.11;101132.44;5084919;28;20221;-83
2021/10/01 09:31:40;;;;;;;2.73;0.50;;;;;;;14.78;55.13;101120.22;5090147;28;20740;-81
2021/10/01 09:34:09;;;;;;;2.10;0.60;;;;;;;14.84;54.78;101125.13;5088890;28;20248;-82
2021/10/01 09:36:36;;;;;;;1.27;0.50;;;;;;;14.90;54.63;101132.72;5090688;28;20196;-85
2021/10/01 09:39:06;;;;;;;2.80;0.60;;;;;;;14.98;54.34;101135.69;5087226;28;20305;-83
2021/10/01 09:41:35;;;;;;;2.47;0.90;;;;;;;15.04;53.86;101124.53;5084345;28;20208;-84
2021/10/01 09:44:08;;;;;;;2.57;0.73;;;;;;;15.07;53.41;101124.28;5086542;28;20203;-82
2021/10/01 09:46:38;;;;;;;2.40;0.70;;;;;;;15.15;53.79;101115.66;5087908;28;20204;-83
2021/10/01 09:49:06;;;;;;;2.37;0.73;;;;;;;15.23;53.90;101121.28;5081171;28;20623;-83
2021/10/01 09:51:35;;;;;;;1.47;0.67;;;;;;;15.29;53.65;101113.66;5083305;28;20236;-82
2021/10/01 09:54:11;;;;;;;2.90;0.80;;;;;;;15.35;53.63;101117.69;5088182;28;20295;-82
2021/10/01 09:56:38;;;;;;;2.60;0.80;;;;;;;15.42;53.64;101096.59;5088534;28;20200;-83
2021/10/01 09:59:11;;;;;;;2.70;0.83;;;;;;;15.49;53.56;101104.06;5088298;28;20227;-84
2021/10/01 10:01:57;;;;;;;2.27;0.40;;;;;;;15.57;53.06;101092.81;5088460;28;20246;-82
2021/10/01 10:04:24;;;;;;;1.77;0.60;;;;;;;15.59;52.63;101091.69;5084892;28;20712;-83
2021/10/01 10:06:51;;;;;;;1.53;0.60;;;;;;;15.64;52.80;101091.34;5082622;28;20690;-84
2021/10/01 10:09:31;;;;;;;1.47;0.80;;;;;;;15.69;53.02;101091.84;5084728;28;20574;-84
2021/10/01 10:11:57;;;;;;;1.33;0.57;;;;;;;15.71;52.91;101087.22;5083459;28;20720;-82
2021/10/01 10:14:24;;;;;;;2.70;0.80;;;;;;;15.72;52.53;101083.56;5086784;28;20201;-84
2021/10/01 10:16:50;;;;;;;4.47;0.93;;;;;;;15.74;52.43;101076.22;5083967;28;20212;-81
2021/10/01 10:19:21;;;;;;;1.43;0.70;;;;;;;15.76;52.10;101076.97;5083797;28;20211;-83
2021/10/01 10:21:49;;;;;;;1.90;0.50;;;;;;;15.77;52.07;101078.66;5086517;28;20240;-83
2021/10/01 10:24:16;;;;;;;1.73;0.80;;;;;;;15.76;51.63;101068.06;5088634;28;20208;-82
2021/10/01 10:26:44;;;;;;;2.77;0.60;;;;;;;15.79;51.81;101060.59;5081696;28;20204;-83
2021/10/01 10:29:13;;;;;;;3.00;1.10;;;;;;;15.79;51.54;101054.38;5085485;28;20238;-85
2021/10/01 10:31:44;;;;;;;3.47;1.17;;;;;;;15.78;51.96;101042.75;5080963;28;20274;-83
2021/10/01 10:34:23;;;;;;;3.07;0.60;;;;;;;15.82;51.92;101046.06;5086274;28;20293;-82
2021/10/01 10:36:51;;;;;;;3.10;1.00;;;;;;;15.85;51.51;101035.94;5087843;28;20288;-82
2021/10/01 10:39:38;;;;;;;0.70;0.50;;;;;;;15.90;51.81;101032.91;5083032;28;20227;-84
2021/10/01 10:42:15;;;;;;;2.50;0.80;;;;;;;15.94;51.83;101029.00;5085507;28;20207;-82
2021/10/01 10:44:52;;;;;;;2.87;0.60;;;;;;;15.97;51.12;101018.84;5083743;28;20211;-83
2021/10/01 10:47:57;;;;;;;1.40;0.70;;;;;;;16.02;50.96;101021.16;5083305;28;20232;-83
2021/10/01 10:50:36;;;;;;;0.80;0.57;;;;;;;16.06;50.43;101016.41;5084690;28;20759;-81
2021/10/01 10:53:28;;;;;;;3.27;0.50;;;;;;;16.12;49.84;101015.94;5084507;28;20592;-82
2021/10/01 10:56:07;;;;;;;1.83;0.53;;;;;;;16.13;49.62;101010.41;5078051;28;20213;-81
2021/10/01 10:58:53;;;;;;;1.47;0.43;;;;;;;16.19;49.50;101009.06;5088470;28;20234;-82
2021/10/01 11:01:29;;;;;;;2.60;0.80;;;;;;;16.25;49.52;101005.88;5092219;28;20816;-80
2021/10/01 11:04:39;;;;;;;0.90;0.50;;;;;;;16.34;48.86;101005.13;5090996;28;20195;-82
2021/10/01 11:07:07;;;;;;;3.83;0.70;;;;;;;16.36;48.46;100995.09;5086752;28;20665;-82
2021/10/01 11:09:35;;;;;;;3.27;0.50;;;;;;;16.43;48.10;101000.84;5085921;28;20677;-83
2021/10/01 11:12:21;;;;;;;3.17;0.70;;;;;;;16.47;48.00;100994.22;5083478;28;20222;-82
2021/10/01 11:15:19;;;;;;;2.50;0.57;;;;;;;16.52;47.82;100992.00;5087448;28;20212;-82
2021/10/01 11:18:12;;;;;;;1.70;0.50;;;;;;;16.55;47.10;100981.84;5082556;28;20624;-83
2021/10/01 11:20:39;;;;;;;1.73;0.50;;;;;;;16.58;46.79;100980.75;5080457;28;20198;-81
2021/10/01 11:23:17;;;;;;;0.60;0.50;;;;;;;16.61;46.36;100985.88;5084982;28;20579;-81
2021/10/01 11:25:44;;;;;;;2.33;0.60;;;;;;;16.63;46.26;100978.56;5082693;28;20648;-80
2021/10/01 11:28:12;;;;;;;2.80;0.57;;;;;;;16.71;46.11;100981.44;5080094;28;20230;-83
2021/10/01 11:30:40;;;;;;;1.03;0.40;;;;;;;16.79;45.18;100984.38;5084140;28;20300;-82
2021/10/01 11:33:08;;;;;;;0.77;0.40;;;;;;;16.91;45.55;100969.00;5087265;28;20309;-81
2021/10/01 11:35:45;;;;;;;1.00;0.53;;;;;;;17.07;45.71;100963.19;5087104;28;20727;-82
2021/10/01 11:38:23;;;;;;;2.17;0.60;;;;;;;17.20;44.38;100959.28;5083521;28;20226;-79
2021/10/01 11:40:50;;;;;;;1.77;0.60;;;;;;;17.32;44.38;100954.72;5081898;28;20201;-83
2021/10/01 11:43:17;;;;;;;2.60;0.70;;;;;;;17.45;43.31;100968.81;5087373;28;20207;-81
2021/10/01 11:45:46;;;;;;;2.37;0.50;;;;;;;17.52;42.21;100961.06;5081080;28;20206;-83
2021/10/01 11:48:14;;;;;;;1.73;0.63;;;;;;;17.61;41.66;100962.94;5083577;28;20234;-82
2021/10/01 11:50:44;;;;;;;1.73;0.70;;;;;;;17.69;41.18;100965.84;5082164;28;20210;-82
2021/10/01 11:53:17;;;;;;;1.90;0.70;;;;;;;17.74;40.79;100952.81;5081913;28;20814;-83
2021/10/01 11:55:53;;;;;;;1.07;0.57;;;;;;;17.80;41.35;100954.97;5080089;28;20204;-83
2021/10/01 11:58:20;;;;;;;1.80;1.20;;;;;;;17.88;41.18;100952.44;5081375;28;20584;-80
2021/10/01 12:00:48;;;;;;;1.00;0.50;;;;;;;17.95;40.51;100941.97;5082378;28;20205;-83
2021/10/01 12:03:16;;;;;;;2.30;0.47;;;;;;;18.00;40.19;100945.09;5079280;28;20686;-82
2021/10/01 12:05:48;;;;;;;2.43;0.60;;;;;;;18.04;39.56;100935.75;5083979;28;20203;-83
2021/10/01 12:08:19;;;;;;;0.37;0.33;;;;;;;18.07;39.16;100931.94;5082091;28;20224;-83
2021/10/01 12:10:48;;;;;;;2.77;0.40;;;;;;;18.06;38.56;100917.59;5083280;28;20202;-82
2021/10/01 12:13:18;;;;;;;3.23;0.50;;;;;;;18.08;38.36;100914.78;5078285;28;20217;-80
2021/10/01 12:15:50;;;;;;;2.47;0.50;;;;;;;18.10;37.52;100908.22;5079035;28;20243;-81
2021/10/01 12:18:32;;;;;;;2.57;0.60;;;;;;;18.14;37.18;100908.81;5084383;28;20236;-80
2021/10/01 12:21:00;;;;;;;1.20;0.50;;;;;;;18.17;37.05;100897.75;5082066;28;20205;-81
2021/10/01 12:23:29;;;;;;;1.17;0.40;;;;;;;18.22;37.27;100900.88;5084971;28;20208;-81
2021/10/01 12:25:57;;;;;;;0.77;0.40;;;;;;;18.29;37.06;100896.63;5085452;28;20656;-80
2021/10/01 12:28:24;;;;;;;2.30;0.30;;;;;;;18.32;36.44;100902.59;5086414;28;20226;-81
2021/10/01 12:31:03;;;;;;;1.53;0.40;;;;;;;18.35;36.09;100901.47;5084594;28;20215;-80
2021/10/01 12:33:31;;;;;;;4.33;0.50;;;;;;;18.39;35.95;100897.50;5079812;28;20591;-82
2021/10/01 12:35:58;;;;;;;2.73;0.40;;;;;;;18.41;36.02;100890.13;5082202;28;20213;-82
2021/10/01 12:38:25;;;;;;;1.93;0.50;;;;;;;18.45;35.27;100888.00;5084064;28;20228;-83
2021/10/01 12:41:12;;;;;;;1.13;0.50;;;;;;;18.49;34.98;100875.91;5083232;28;20200;-83
2021/10/01 12:43:44;;;;;;;1.13;0.30;;;;;;;18.50;34.94;100885.69;5086959;28;20236;-81
2021/10/01 12:46:12;;;;;;;1.00;0.40;;;;;;;18.53;35.19;100878.19;5087721;28;20201;-81
2021/10/01 12:48:39;;;;;;;0.77;0.30;;;;;;;18.57;35.11;100878.75;5081377;28;20235;-81
2021/10/01 12:51:24;;;;;;;1.47;0.57;;;;;;;18.61;35.29;100885.63;5083407;28;20213;-82
2021/10/01 12:53:50;;;;;;;2.50;0.33;;;;;;;18.63;35.34;100880.94;5082411;28;20212;-84
2021/10/01 12:56:18;;;;;;;0.40;0.40;;;;;;;18.65;35.19;100879.75;5081032;28;20208;-83
2021/10/01 12:58:45;;;;;;;0.90;0.60;;;;;;;18.67;35.07;100869.69;5083087;28;20219;-82
2021/10/01 13:01:18;;;;;;;2.33;0.40;;;;;;;18.69;35.21;100856.91;5088160;28;20210;-80
2021/10/01 13:03:49;;;;;;;1.63;0.53;;;;;;;18.73;35.38;100858.31;5083067;28;20197;-83
2021/10/01 13:06:30;;;;;;;1.43;0.50;;;;;;;18.75;35.54;100846.53;5082427;28;20209;-81